sensor_id;sensor_type;location;lat;lon;timestamp;pressure;altitude;pressure_sealevel;temperature;humidity
70009;BME280;59542;37.950;-122.338;2023-01-29T00:00:17;101240.59;;;12.84;63.99
70009;BME280;59542;37.950;-122.338;2023-01-29T00:02:44;101249.69;;;12.76;64.89
70009;BME280;59542;37.950;-122.338;2023-01-29T00:05:10;101246.41;;;12.54;65.96
70009;BME280;59542;37.950;-122.338;2023-01-29T00:07:36;101250.56;;;12.50;66.83
70009;BME280;59542;37.950;-122.338;2023-01-29T00:10:02;101256.13;;;12.42;66.95
70009;BME280;59542;37.950;-122.338;2023-01-29T00:12:29;101257.16;;;12.48;67.70
70009;BME280;59542;37.950;-122.338;2023-01-29T00:14:55;101249.53;;;12.45;68.13
70009;BME280;59542;37.950;-122.338;2023-01-29T00:17:21;101239.00;;;12.36;67.43
70009;BME280;59542;37.950;-122.338;2023-01-29T00:19:48;101235.69;;;12.21;68.58
70009;BME280;59542;37.950;-122.338;2023-01-29T00:22:14;101242.72;;;12.15;69.19
70009;BME280;59542;37.950;-122.338;2023-01-29T00:24:40;101239.00;;;12.30;68.15
70009;BME280;59542;37.950;-122.338;2023-01-29T00:27:09;101234.50;;;12.17;68.87
70009;BME280;59542;37.950;-122.338;2023-01-29T00:29:35;101232.81;;;12.09;69.01
70009;BME280;59542;37.950;-122.338;2023-01-29T00:32:01;101236.53;;;12.15;68.67
70009;BME280;59542;37.950;-122.338;2023-01-29T00:34:28;101228.50;;;12.22;68.43
70009;BME280;59542;37.950;-122.338;2023-01-29T00:36:54;101229.31;;;12.22;68.46
70009;BME280;59542;37.950;-122.338;2023-01-29T00:39:32;101221.25;;;12.15;69.12
70009;BME280;59542;37.950;-122.338;2023-01-29T00:42:05;101227.44;;;12.09;68.72
70009;BME280;59542;37.950;-122.338;2023-01-29T00:44:49;101229.94;;;11.84;70.02
70009;BME280;59542;37.950;-122.338;2023-01-29T00:47:25;101229.69;;;11.79;70.31
70009;BME280;59542;37.950;-122.338;2023-01-29T00:50:02;101221.22;;;11.76;70.65
70009;BME280;59542;37.950;-122.338;2023-01-29T00:52:29;101218.53;;;11.69;71.09
70009;BME280;59542;37.950;-122.338;2023-01-29T00:54:57;101216.66;;;11.63;71.80
70009;BME280;59542;37.950;-122.338;2023-01-29T00:57:26;101213.75;;;11.58;72.35
70009;BME280;59542;37.950;-122.338;2023-01-29T00:59:52;101224.88;;;11.48;72.85
70009;BME280;59542;37.950;-122.338;2023-01-29T01:02:20;101229.84;;;11.51;73.10
70009;BME280;59542;37.950;-122.338;2023-01-29T01:05:06;101230.00;;;11.43;73.44
70009;BME280;59542;37.950;-122.338;2023-01-29T01:07:34;101224.25;;;11.40;73.60
70009;BME280;59542;37.950;-122.338;2023-01-29T01:10:01;101240.78;;;11.50;72.98
70009;BME280;59542;37.950;-122.338;2023-01-29T01:12:46;101256.09;;;11.21;74.12
70009;BME280;59542;37.950;-122.338;2023-01-29T01:15:13;101259.78;;;11.14;73.89
70009;BME280;59542;37.950;-122.338;2023-01-29T01:17:39;101263.31;;;11.14;74.01
70009;BME280;59542;37.950;-122.338;2023-01-29T01:20:06;101264.16;;;11.21;73.67
70009;BME280;59542;37.950;-122.338;2023-01-29T01:22:33;101274.66;;;11.16;73.60
70009;BME280;59542;37.950;-122.338;2023-01-29T01:25:00;101272.53;;;11.05;74.07
70009;BME280;59542;37.950;-122.338;2023-01-29T01:27:26;101272.41;;;10.78;74.95
70009;BME280;59542;37.950;-122.338;2023-01-29T01:29:53;101263.84;;;10.96;74.86
70009;BME280;59542;37.950;-122.338;2023-01-29T01:32:19;101243.50;;;11.08;74.11
70009;BME280;59542;37.950;-122.338;2023-01-29T01:34:45;101252.50;;;10.94;74.50
70009;BME280;59542;37.950;-122.338;2023-01-29T01:37:11;101255.59;;;10.98;73.92
70009;BME280;59542;37.950;-122.338;2023-01-29T01:39:38;101253.50;;;10.93;74.28
70009;BME280;59542;37.950;-122.338;2023-01-29T01:42:09;101250.69;;;11.01;74.18
70009;BME280;59542;37.950;-122.338;2023-01-29T01:44:59;101248.63;;;11.03;74.20
70009;BME280;59542;37.950;-122.338;2023-01-29T01:47:42;101253.94;;;10.97;73.84
70009;BME280;59542;37.950;-122.338;2023-01-29T01:52:48;101251.28;;;10.62;74.93
70009;BME280;59542;37.950;-122.338;2023-01-29T01:55:18;101235.06;;;10.70;74.42
70009;BME280;59542;37.950;-122.338;2023-01-29T01:57:50;101238.31;;;11.00;73.20
70009;BME280;59542;37.950;-122.338;2023-01-29T02:00:20;101231.34;;;10.71;74.02
70009;BME280;59542;37.950;-122.338;2023-01-29T02:02:47;101241.91;;;10.79;73.76
70009;BME280;59542;37.950;-122.338;2023-01-29T02:05:33;101243.09;;;10.70;74.24
70009;BME280;59542;37.950;-122.338;2023-01-29T02:08:46;101226.63;;;10.73;74.28
70009;BME280;59542;37.950;-122.338;2023-01-29T02:11:29;101235.28;;;10.75;73.89
70009;BME280;59542;37.950;-122.338;2023-01-29T02:13:56;101238.75;;;10.35;75.51
70009;BME280;59542;37.950;-122.338;2023-01-29T02:16:22;101224.53;;;10.34;75.45
70009;BME280;59542;37.950;-122.338;2023-01-29T02:18:49;101238.34;;;10.38;75.11
70009;BME280;59542;37.950;-122.338;2023-01-29T02:26:38;101225.69;;;10.53;74.66
70009;BME280;59542;37.950;-122.338;2023-01-29T02:38:09;101210.25;;;10.27;75.83
70009;BME280;59542;37.950;-122.338;2023-01-29T02:43:46;101203.81;;;10.21;76.15
70009;BME280;59542;37.950;-122.338;2023-01-29T02:54:40;101230.16;;;10.18;75.09
70009;BME280;59542;37.950;-122.338;2023-01-29T02:57:22;101239.84;;;10.47;73.76
70009;BME280;59542;37.950;-122.338;2023-01-29T02:59:59;101248.13;;;10.24;74.25
70009;BME280;59542;37.950;-122.338;2023-01-29T03:02:40;101249.53;;;10.48;72.90
70009;BME280;59542;37.950;-122.338;2023-01-29T03:05:15;101248.41;;;10.14;73.56
70009;BME280;59542;37.950;-122.338;2023-01-29T03:07:46;101251.34;;;10.19;73.26
70009;BME280;59542;37.950;-122.338;2023-01-29T03:12:53;101248.47;;;10.21;72.08
70009;BME280;59542;37.950;-122.338;2023-01-29T03:15:28;101238.50;;;10.08;72.22
70009;BME280;59542;37.950;-122.338;2023-01-29T03:20:25;101243.22;;;10.06;71.85
70009;BME280;59542;37.950;-122.338;2023-01-29T03:23:00;101236.66;;;9.87;72.23
70009;BME280;59542;37.950;-122.338;2023-01-29T03:25:29;101243.59;;;9.82;72.17
70009;BME280;59542;37.950;-122.338;2023-01-29T03:28:16;101246.56;;;9.93;71.86
70009;BME280;59542;37.950;-122.338;2023-01-29T03:31:06;101249.13;;;10.01;71.59
70009;BME280;59542;37.950;-122.338;2023-01-29T03:34:01;101248.63;;;9.70;72.83
70009;BME280;59542;37.950;-122.338;2023-01-29T03:36:39;101246.31;;;9.88;72.07
70009;BME280;59542;37.950;-122.338;2023-01-29T03:39:11;101236.09;;;9.70;72.74
70009;BME280;59542;37.950;-122.338;2023-01-29T03:50:00;101242.97;;;9.43;72.90
70009;BME280;59542;37.950;-122.338;2023-01-29T03:53:11;101240.81;;;9.32;72.90
70009;BME280;59542;37.950;-122.338;2023-01-29T03:55:23;101232.44;;;9.20;73.07
70009;BME280;59542;37.950;-122.338;2023-01-29T04:00:50;101234.59;;;9.10;73.87
70009;BME280;59542;37.950;-122.338;2023-01-29T04:03:21;101240.50;;;9.06;73.72
70009;BME280;59542;37.950;-122.338;2023-01-29T04:05:54;101236.25;;;9.11;73.52
70009;BME280;59542;37.950;-122.338;2023-01-29T04:08:45;101240.66;;;9.04;73.05
70009;BME280;59542;37.950;-122.338;2023-01-29T04:11:15;101247.59;;;8.98;73.34
70009;BME280;59542;37.950;-122.338;2023-01-29T04:13:44;101257.53;;;9.05;72.91
70009;BME280;59542;37.950;-122.338;2023-01-29T04:16:19;101251.81;;;8.93;73.11
70009;BME280;59542;37.950;-122.338;2023-01-29T04:18:48;101249.00;;;8.94;73.60
70009;BME280;59542;37.950;-122.338;2023-01-29T04:21:15;101245.19;;;9.04;73.49
70009;BME280;59542;37.950;-122.338;2023-01-29T04:23:42;101241.59;;;8.82;74.01
70009;BME280;59542;37.950;-122.338;2023-01-29T04:48:49;101205.72;;;8.40;74.98
70009;BME280;59542;37.950;-122.338;2023-01-29T04:57:23;101217.81;;;8.28;75.54
70009;BME280;59542;37.950;-122.338;2023-01-29T05:00:29;101223.69;;;8.23;75.61
70009;BME280;59542;37.950;-122.338;2023-01-29T05:02:59;101219.47;;;8.29;75.17
70009;BME280;59542;37.950;-122.338;2023-01-29T05:05:27;101222.41;;;8.19;75.45
70009;BME280;59542;37.950;-122.338;2023-01-29T05:07:54;101223.22;;;8.19;75.65
70009;BME280;59542;37.950;-122.338;2023-01-29T05:10:22;101212.25;;;8.14;75.89
70009;BME280;59542;37.950;-122.338;2023-01-29T05:12:56;101208.13;;;8.12;75.72
70009;BME280;59542;37.950;-122.338;2023-01-29T05:15:26;101203.81;;;8.11;75.49
70009;BME280;59542;37.950;-122.338;2023-01-29T05:17:55;101200.38;;;8.02;75.47
70009;BME280;59542;37.950;-122.338;2023-01-29T05:20:26;101198.00;;;8.07;75.31
70009;BME280;59542;37.950;-122.338;2023-01-29T05:22:53;101203.78;;;7.96;75.62
70009;BME280;59542;37.950;-122.338;2023-01-29T05:25:26;101203.19;;;7.86;75.82
70009;BME280;59542;37.950;-122.338;2023-01-29T05:27:53;101207.69;;;7.85;75.94
70009;BME280;59542;37.950;-122.338;2023-01-29T05:30:30;101207.88;;;7.84;76.11
70009;BME280;59542;37.950;-122.338;2023-01-29T05:32:56;101200.91;;;7.83;76.41
70009;BME280;59542;37.950;-122.338;2023-01-29T05:35:23;101203.56;;;7.83;76.35
70009;BME280;59542;37.950;-122.338;2023-01-29T05:37:49;101205.06;;;7.77;76.34
70009;BME280;59542;37.950;-122.338;2023-01-29T05:40:15;101197.94;;;7.78;76.25
70009;BME280;59542;37.950;-122.338;2023-01-29T05:42:41;101195.28;;;7.78;76.82
70009;BME280;59542;37.950;-122.338;2023-01-29T05:45:08;101192.63;;;7.78;76.74
70009;BME280;59542;37.950;-122.338;2023-01-29T05:47:35;101192.31;;;7.73;77.79
70009;BME280;59542;37.950;-122.338;2023-01-29T05:50:01;101192.25;;;7.81;77.43
70009;BME280;59542;37.950;-122.338;2023-01-29T05:52:28;101181.03;;;7.85;78.09
70009;BME280;59542;37.950;-122.338;2023-01-29T05:54:54;101187.63;;;8.12;79.32
70009;BME280;59542;37.950;-122.338;2023-01-29T05:57:20;101181.19;;;8.21;80.48
70009;BME280;59542;37.950;-122.338;2023-01-29T05:59:47;101175.03;;;8.21;80.40
70009;BME280;59542;37.950;-122.338;2023-01-29T06:02:13;101179.63;;;8.12;81.04
70009;BME280;59542;37.950;-122.338;2023-01-29T06:04:39;101178.09;;;8.18;81.22
70009;BME280;59542;37.950;-122.338;2023-01-29T06:07:05;101178.19;;;8.25;80.78
70009;BME280;59542;37.950;-122.338;2023-01-29T06:09:31;101180.50;;;8.28;81.29
70009;BME280;59542;37.950;-122.338;2023-01-29T06:11:58;101188.56;;;8.19;81.30
70009;BME280;59542;37.950;-122.338;2023-01-29T06:14:24;101180.84;;;8.25;81.53
70009;BME280;59542;37.950;-122.338;2023-01-29T06:16:50;101185.03;;;8.42;80.69
70009;BME280;59542;37.950;-122.338;2023-01-29T06:19:16;101189.63;;;8.63;80.46
70009;BME280;59542;37.950;-122.338;2023-01-29T06:21:43;101185.75;;;8.36;81.32
70009;BME280;59542;37.950;-122.338;2023-01-29T06:24:10;101196.44;;;8.36;81.59
70009;BME280;59542;37.950;-122.338;2023-01-29T06:26:36;101188.50;;;8.42;81.89
70009;BME280;59542;37.950;-122.338;2023-01-29T06:29:03;101191.16;;;8.28;82.10
70009;BME280;59542;37.950;-122.338;2023-01-29T06:31:29;101191.72;;;8.38;82.09
70009;BME280;59542;37.950;-122.338;2023-01-29T06:33:56;101177.84;;;8.42;81.49
70009;BME280;59542;37.950;-122.338;2023-01-29T06:36:23;101191.38;;;8.41;81.75
70009;BME280;59542;37.950;-122.338;2023-01-29T06:38:49;101185.56;;;8.37;82.20
70009;BME280;59542;37.950;-122.338;2023-01-29T06:41:17;101181.06;;;8.53;81.56
70009;BME280;59542;37.950;-122.338;2023-01-29T06:43:44;101180.13;;;8.60;81.23
70009;BME280;59542;37.950;-122.338;2023-01-29T06:46:11;101162.31;;;8.46;81.99
70009;BME280;59542;37.950;-122.338;2023-01-29T06:48:37;101168.66;;;8.45;81.92
70009;BME280;59542;37.950;-122.338;2023-01-29T06:51:05;101169.22;;;8.40;81.88
70009;BME280;59542;37.950;-122.338;2023-01-29T06:53:32;101165.88;;;8.53;81.59
70009;BME280;59542;37.950;-122.338;2023-01-29T06:55:59;101166.63;;;8.47;81.93
70009;BME280;59542;37.950;-122.338;2023-01-29T06:58:25;101168.56;;;8.53;81.44
70009;BME280;59542;37.950;-122.338;2023-01-29T07:00:52;101171.78;;;8.63;81.24
70009;BME280;59542;37.950;-122.338;2023-01-29T07:03:18;101171.66;;;8.86;80.79
70009;BME280;59542;37.950;-122.338;2023-01-29T07:05:51;101172.03;;;8.83;80.75
70009;BME280;59542;37.950;-122.338;2023-01-29T07:08:18;101170.69;;;8.72;81.15
70009;BME280;59542;37.950;-122.338;2023-01-29T07:10:48;101153.56;;;8.67;81.28
70009;BME280;59542;37.950;-122.338;2023-01-29T07:13:15;101162.66;;;8.58;81.62
70009;BME280;59542;37.950;-122.338;2023-01-29T07:15:41;101157.97;;;8.75;80.77
70009;BME280;59542;37.950;-122.338;2023-01-29T07:18:09;101155.13;;;8.61;81.04
70009;BME280;59542;37.950;-122.338;2023-01-29T07:20:40;101154.84;;;8.56;81.02
70009;BME280;59542;37.950;-122.338;2023-01-29T07:23:10;101146.75;;;8.64;80.54
70009;BME280;59542;37.950;-122.338;2023-01-29T07:25:36;101153.03;;;8.57;80.75
70009;BME280;59542;37.950;-122.338;2023-01-29T07:28:03;101145.66;;;8.59;80.55
70009;BME280;59542;37.950;-122.338;2023-01-29T07:30:30;101138.56;;;8.51;80.79
70009;BME280;59542;37.950;-122.338;2023-01-29T07:33:01;101142.34;;;8.57;80.56
70009;BME280;59542;37.950;-122.338;2023-01-29T07:35:27;101131.19;;;8.53;80.39
70009;BME280;59542;37.950;-122.338;2023-01-29T07:37:54;101140.41;;;8.51;80.52
70009;BME280;59542;37.950;-122.338;2023-01-29T07:40:20;101126.25;;;8.50;80.44
70009;BME280;59542;37.950;-122.338;2023-01-29T07:42:46;101126.06;;;8.52;80.44
70009;BME280;59542;37.950;-122.338;2023-01-29T07:45:12;101114.56;;;8.51;80.27
70009;BME280;59542;37.950;-122.338;2023-01-29T07:47:39;101122.28;;;8.61;80.02
70009;BME280;59542;37.950;-122.338;2023-01-29T07:50:05;101121.06;;;8.63;79.93
70009;BME280;59542;37.950;-122.338;2023-01-29T07:52:32;101118.41;;;8.63;79.97
70009;BME280;59542;37.950;-122.338;2023-01-29T07:54:59;101119.44;;;8.62;80.12
70009;BME280;59542;37.950;-122.338;2023-01-29T07:57:25;101119.09;;;8.87;79.98
70009;BME280;59542;37.950;-122.338;2023-01-29T07:59:51;101115.13;;;8.83;79.64
70009;BME280;59542;37.950;-122.338;2023-01-29T08:02:18;101105.94;;;8.85;80.03
70009;BME280;59542;37.950;-122.338;2023-01-29T08:04:44;101108.47;;;8.93;80.62
70009;BME280;59542;37.950;-122.338;2023-01-29T08:07:10;101103.75;;;8.89;81.34
70009;BME280;59542;37.950;-122.338;2023-01-29T08:09:36;101106.66;;;8.94;81.43
70009;BME280;59542;37.950;-122.338;2023-01-29T08:12:03;101107.84;;;8.91;81.75
70009;BME280;59542;37.950;-122.338;2023-01-29T08:14:29;101113.00;;;8.93;81.69
70009;BME280;59542;37.950;-122.338;2023-01-29T08:16:55;101109.41;;;9.01;81.45
70009;BME280;59542;37.950;-122.338;2023-01-29T08:19:21;101099.81;;;9.06;81.53
70009;BME280;59542;37.950;-122.338;2023-01-29T08:21:48;101089.81;;;9.15;81.35
70009;BME280;59542;37.950;-122.338;2023-01-29T08:24:14;101091.81;;;9.28;80.94
70009;BME280;59542;37.950;-122.338;2023-01-29T08:26:40;101082.19;;;9.33;80.99
70009;BME280;59542;37.950;-122.338;2023-01-29T08:29:06;101076.97;;;9.46;79.26
70009;BME280;59542;37.950;-122.338;2023-01-29T08:31:32;101077.16;;;9.45;78.97
70009;BME280;59542;37.950;-122.338;2023-01-29T08:33:59;101083.28;;;9.39;78.59
70009;BME280;59542;37.950;-122.338;2023-01-29T08:36:26;101075.94;;;9.47;77.33
70009;BME280;59542;37.950;-122.338;2023-01-29T08:38:52;101084.97;;;9.46;76.87
70009;BME280;59542;37.950;-122.338;2023-01-29T08:41:18;101087.66;;;9.25;77.34
70009;BME280;59542;37.950;-122.338;2023-01-29T08:43:44;101081.50;;;9.24;76.59
70009;BME280;59542;37.950;-122.338;2023-01-29T08:46:11;101083.59;;;9.29;76.55
70009;BME280;59542;37.950;-122.338;2023-01-29T08:48:37;101072.47;;;9.25;75.95
70009;BME280;59542;37.950;-122.338;2023-01-29T08:51:04;101071.56;;;9.18;76.29
70009;BME280;59542;37.950;-122.338;2023-01-29T08:53:31;101069.09;;;9.17;76.26
70009;BME280;59542;37.950;-122.338;2023-01-29T08:55:57;101072.84;;;9.22;75.98
70009;BME280;59542;37.950;-122.338;2023-01-29T08:58:24;101076.78;;;9.26;75.71
70009;BME280;59542;37.950;-122.338;2023-01-29T09:00:50;101078.47;;;9.28;75.01
70009;BME280;59542;37.950;-122.338;2023-01-29T09:03:16;101079.97;;;9.37;74.38
70009;BME280;59542;37.950;-122.338;2023-01-29T09:05:42;101076.88;;;9.33;74.07
70009;BME280;59542;37.950;-122.338;2023-01-29T09:08:09;101072.50;;;9.32;74.21
70009;BME280;59542;37.950;-122.338;2023-01-29T09:10:35;101068.72;;;9.20;74.79
70009;BME280;59542;37.950;-122.338;2023-01-29T09:13:02;101070.56;;;9.19;74.49
70009;BME280;59542;37.950;-122.338;2023-01-29T09:15:28;101080.41;;;9.19;73.70
70009;BME280;59542;37.950;-122.338;2023-01-29T09:17:55;101064.31;;;9.34;72.80
70009;BME280;59542;37.950;-122.338;2023-01-29T09:20:21;101067.13;;;9.04;73.63
70009;BME280;59542;37.950;-122.338;2023-01-29T09:22:47;101067.78;;;9.06;73.67
70009;BME280;59542;37.950;-122.338;2023-01-29T09:25:15;101060.69;;;8.98;73.29
70009;BME280;59542;37.950;-122.338;2023-01-29T09:27:41;101048.41;;;9.04;73.48
70009;BME280;59542;37.950;-122.338;2023-01-29T09:30:08;101036.56;;;9.07;72.94
70009;BME280;59542;37.950;-122.338;2023-01-29T09:32:34;101034.97;;;8.91;73.38
70009;BME280;59542;37.950;-122.338;2023-01-29T09:35:00;101031.16;;;9.00;73.03
70009;BME280;59542;37.950;-122.338;2023-01-29T09:37:27;101023.78;;;9.02;72.92
70009;BME280;59542;37.950;-122.338;2023-01-29T09:39:53;101022.38;;;9.06;72.00
70009;BME280;59542;37.950;-122.338;2023-01-29T09:42:36;101018.38;;;8.95;72.77
70009;BME280;59542;37.950;-122.338;2023-01-29T09:45:15;101017.78;;;8.79;73.17
70009;BME280;59542;37.950;-122.338;2023-01-29T09:47:46;101018.69;;;8.86;72.94
70009;BME280;59542;37.950;-122.338;2023-01-29T09:50:21;101014.47;;;8.77;72.96
70009;BME280;59542;37.950;-122.338;2023-01-29T09:52:59;101024.28;;;8.55;73.07
70009;BME280;59542;37.950;-122.338;2023-01-29T09:55:28;101022.22;;;8.71;72.73
70009;BME280;59542;37.950;-122.338;2023-01-29T09:57:58;101018.31;;;8.53;72.96
70009;BME280;59542;37.950;-122.338;2023-01-29T10:14:18;101027.84;;;7.96;75.98
70009;BME280;59542;37.950;-122.338;2023-01-29T10:20:33;101015.50;;;8.25;77.03
70009;BME280;59542;37.950;-122.338;2023-01-29T10:25:39;101015.59;;;8.31;76.65
70009;BME280;59542;37.950;-122.338;2023-01-29T10:28:28;101007.53;;;8.39;76.22
70009;BME280;59542;37.950;-122.338;2023-01-29T10:31:43;101007.16;;;8.28;76.05
70009;BME280;59542;37.950;-122.338;2023-01-29T10:34:13;101015.47;;;8.54;73.99
70009;BME280;59542;37.950;-122.338;2023-01-29T10:36:46;101004.72;;;8.33;74.00
70009;BME280;59542;37.950;-122.338;2023-01-29T10:39:20;100999.78;;;8.30;72.89
70009;BME280;59542;37.950;-122.338;2023-01-29T10:50:07;101004.91;;;8.31;70.33
70009;BME280;59542;37.950;-122.338;2023-01-29T11:00:56;100995.88;;;8.11;70.98
70009;BME280;59542;37.950;-122.338;2023-01-29T11:03:27;100999.34;;;8.11;71.13
70009;BME280;59542;37.950;-122.338;2023-01-29T11:11:16;100986.69;;;7.84;72.48
70009;BME280;59542;37.950;-122.338;2023-01-29T11:13:58;100962.66;;;7.99;71.72
70009;BME280;59542;37.950;-122.338;2023-01-29T11:16:28;100972.34;;;8.00;71.49
70009;BME280;59542;37.950;-122.338;2023-01-29T11:18:57;100968.19;;;7.82;72.04
70009;BME280;59542;37.950;-122.338;2023-01-29T11:21:25;100968.84;;;7.70;72.50
70009;BME280;59542;37.950;-122.338;2023-01-29T11:24:12;100968.84;;;7.70;72.28
70009;BME280;59542;37.950;-122.338;2023-01-29T11:26:42;100973.72;;;7.81;72.09
70009;BME280;59542;37.950;-122.338;2023-01-29T11:31:54;100971.06;;;7.81;71.79
70009;BME280;59542;37.950;-122.338;2023-01-29T11:34:22;100970.59;;;7.62;72.37
70009;BME280;59542;37.950;-122.338;2023-01-29T11:37:02;100967.28;;;7.75;72.09
70009;BME280;59542;37.950;-122.338;2023-01-29T11:39:31;100968.22;;;7.67;72.77
70009;BME280;59542;37.950;-122.338;2023-01-29T11:42:01;100970.44;;;7.79;72.15
70009;BME280;59542;37.950;-122.338;2023-01-29T11:44:40;100963.72;;;7.53;73.41
70009;BME280;59542;37.950;-122.338;2023-01-29T11:52:12;100958.66;;;7.58;73.23
70009;BME280;59542;37.950;-122.338;2023-01-29T11:54:58;100957.72;;;7.66;73.12
70009;BME280;59542;37.950;-122.338;2023-01-29T11:57:30;100963.53;;;7.70;72.75
70009;BME280;59542;37.950;-122.338;2023-01-29T12:00:03;100962.78;;;7.76;72.61
70009;BME280;59542;37.950;-122.338;2023-01-29T12:02:35;100955.91;;;7.66;72.84
70009;BME280;59542;37.950;-122.338;2023-01-29T12:05:16;100953.41;;;7.80;72.41
70009;BME280;59542;37.950;-122.338;2023-01-29T12:07:45;100949.00;;;7.87;71.74
70009;BME280;59542;37.950;-122.338;2023-01-29T12:10:45;100947.06;;;7.81;71.81
70009;BME280;59542;37.950;-122.338;2023-01-29T12:15:43;100947.28;;;7.79;71.31
70009;BME280;59542;37.950;-122.338;2023-01-29T12:18:29;100940.72;;;7.82;71.15
70009;BME280;59542;37.950;-122.338;2023-01-29T12:21:01;100938.53;;;7.71;70.83
70009;BME280;59542;37.950;-122.338;2023-01-29T12:23:47;100927.88;;;7.71;70.71
70009;BME280;59542;37.950;-122.338;2023-01-29T12:29:19;100924.84;;;7.74;70.76
70009;BME280;59542;37.950;-122.338;2023-01-29T12:32:06;100924.09;;;7.80;69.97
70009;BME280;59542;37.950;-122.338;2023-01-29T12:37:24;100919.44;;;7.67;70.22
70009;BME280;59542;37.950;-122.338;2023-01-29T12:39:55;100918.34;;;7.61;70.29
70009;BME280;59542;37.950;-122.338;2023-01-29T12:42:22;100924.84;;;7.59;70.06
70009;BME280;59542;37.950;-122.338;2023-01-29T12:45:05;100921.91;;;7.54;70.12
70009;BME280;59542;37.950;-122.338;2023-01-29T12:47:42;100914.84;;;7.46;70.41
70009;BME280;59542;37.950;-122.338;2023-01-29T12:53:11;100922.66;;;7.48;70.26
70009;BME280;59542;37.950;-122.338;2023-01-29T12:55:46;100911.34;;;7.31;70.94
70009;BME280;59542;37.950;-122.338;2023-01-29T12:58:44;100905.84;;;7.47;70.85
70009;BME280;59542;37.950;-122.338;2023-01-29T13:04:07;100884.72;;;7.46;71.17
70009;BME280;59542;37.950;-122.338;2023-01-29T13:06:44;100902.91;;;7.42;70.97
70009;BME280;59542;37.950;-122.338;2023-01-29T13:09:27;100905.03;;;7.47;71.26
70009;BME280;59542;37.950;-122.338;2023-01-29T13:11:59;100891.16;;;7.51;71.32
70009;BME280;59542;37.950;-122.338;2023-01-29T13:17:08;100885.63;;;7.67;71.24
70009;BME280;59542;37.950;-122.338;2023-01-29T13:19:41;100898.22;;;7.74;71.31
70009;BME280;59542;37.950;-122.338;2023-01-29T13:22:28;100892.06;;;7.58;72.21
70009;BME280;59542;37.950;-122.338;2023-01-29T13:24:57;100887.28;;;7.68;71.73
70009;BME280;59542;37.950;-122.338;2023-01-29T13:27:26;100878.19;;;7.78;70.98
70009;BME280;59542;37.950;-122.338;2023-01-29T13:29:53;100877.53;;;7.76;71.00
70009;BME280;59542;37.950;-122.338;2023-01-29T13:32:30;100878.28;;;7.70;70.93
70009;BME280;59542;37.950;-122.338;2023-01-29T13:35:03;100876.63;;;7.68;70.04
70009;BME280;59542;37.950;-122.338;2023-01-29T13:37:39;100874.44;;;7.57;70.67
70009;BME280;59542;37.950;-122.338;2023-01-29T13:40:26;100875.00;;;7.53;70.38
70009;BME280;59542;37.950;-122.338;2023-01-29T13:42:54;100868.84;;;7.52;70.29
70009;BME280;59542;37.950;-122.338;2023-01-29T13:45:24;100859.13;;;7.45;70.29
70009;BME280;59542;37.950;-122.338;2023-01-29T13:47:53;100855.88;;;7.49;69.96
70009;BME280;59542;37.950;-122.338;2023-01-29T13:50:38;100850.31;;;7.44;70.27
70009;BME280;59542;37.950;-122.338;2023-01-29T13:53:15;100846.97;;;7.42;70.49
70009;BME280;59542;37.950;-122.338;2023-01-29T13:55:44;100843.97;;;7.45;69.97
70009;BME280;59542;37.950;-122.338;2023-01-29T14:00:59;100850.28;;;7.14;70.54
70009;BME280;59542;37.950;-122.338;2023-01-29T14:06:01;100844.50;;;7.26;70.01
70009;BME280;59542;37.950;-122.338;2023-01-29T14:13:48;100854.13;;;6.97;71.02
70009;BME280;59542;37.950;-122.338;2023-01-29T14:16:35;100853.75;;;6.85;71.64
70009;BME280;59542;37.950;-122.338;2023-01-29T14:19:02;100852.19;;;6.76;72.29
70009;BME280;59542;37.950;-122.338;2023-01-29T14:21:34;100856.66;;;6.76;71.84
70009;BME280;59542;37.950;-122.338;2023-01-29T14:24:15;100861.53;;;6.72;71.98
70009;BME280;59542;37.950;-122.338;2023-01-29T14:26:43;100867.69;;;6.73;71.38
70009;BME280;59542;37.950;-122.338;2023-01-29T14:36:59;100866.44;;;6.60;70.97
70009;BME280;59542;37.950;-122.338;2023-01-29T14:40:12;100857.50;;;6.39;72.17
70009;BME280;59542;37.950;-122.338;2023-01-29T14:43:00;100855.38;;;6.34;72.95
70009;BME280;59542;37.950;-122.338;2023-01-29T14:45:36;100864.59;;;6.00;73.96
70009;BME280;59542;37.950;-122.338;2023-01-29T14:53:08;100863.47;;;6.18;72.66
70009;BME280;59542;37.950;-122.338;2023-01-29T14:55:57;100858.56;;;6.06;72.87
70009;BME280;59542;37.950;-122.338;2023-01-29T15:01:01;100852.72;;;6.11;71.88
70009;BME280;59542;37.950;-122.338;2023-01-29T15:03:45;100851.41;;;6.07;71.86
70009;BME280;59542;37.950;-122.338;2023-01-29T15:15:34;100856.44;;;6.25;70.94
70009;BME280;59542;37.950;-122.338;2023-01-29T15:23:00;100859.59;;;5.97;71.85
70009;BME280;59542;37.950;-122.338;2023-01-29T15:25:47;100852.97;;;5.93;72.02
70009;BME280;59542;37.950;-122.338;2023-01-29T15:28:14;100859.41;;;5.99;71.93
70009;BME280;59542;37.950;-122.338;2023-01-29T15:30:41;100856.09;;;6.28;71.44
70009;BME280;59542;37.950;-122.338;2023-01-29T15:33:09;100866.41;;;6.00;72.21
70009;BME280;59542;37.950;-122.338;2023-01-29T15:35:38;100863.78;;;6.23;71.69
70009;BME280;59542;37.950;-122.338;2023-01-29T15:38:20;100870.25;;;6.20;71.95
70009;BME280;59542;37.950;-122.338;2023-01-29T15:40:55;100859.69;;;6.35;71.65
70009;BME280;59542;37.950;-122.338;2023-01-29T15:43:35;100859.38;;;6.30;71.72
70009;BME280;59542;37.950;-122.338;2023-01-29T15:46:05;100866.47;;;6.38;71.82
70009;BME280;59542;37.950;-122.338;2023-01-29T15:48:36;100863.50;;;6.32;72.38